Stout, Ohio
Current Conditions -  °F | °C
As of 4:55 PM on Friday 28 Nov 2014 (Local Time) from KFGX Reporting Station
Broken Clouds Broken Clouds  
Wind Chill: 28°   Ceiling: 12000
Heat Index: 34°   Visibility: 10mi
Dew Point: 19°   Wind: 7mph
Humidity: 56%   Direction: 190°S
Pressure: 30.24"   Gusts: NA
Location:  38.66°N, 83.38°W
Report Text: KFGX 282155Z AUTO 19006KT 10SM BKN120 01/M07 A3024 RMK AO2 T00101070
Loading
Personal Weather Stations






























Interactive Weather Map New forecast layout! Learn more

10-Day Weather Forecast

Advertisements
Track Severe Weather on mobile